sensor_id;sensor_type;location;lat;lon;timestamp;pressure;altitude;pressure_sealevel;temperature;humidity
37450;BME280;23309;52.582;13.406;2022-09-04T00:00:10;101410.81;;;25.39;28.01
37450;BME280;23309;52.582;13.406;2022-09-04T00:03:03;101397.38;;;25.31;28.26
37450;BME280;23309;52.582;13.406;2022-09-04T00:05:36;101407.03;;;25.20;28.17
37450;BME280;23309;52.582;13.406;2022-09-04T00:08:29;101414.84;;;25.23;28.31
37450;BME280;23309;52.582;13.406;2022-09-04T00:11:07;101409.81;;;25.07;28.48
37450;BME280;23309;52.582;13.406;2022-09-04T00:13:43;101413.41;;;25.01;28.70
37450;BME280;23309;52.582;13.406;2022-09-04T00:16:16;101406.06;;;24.89;28.38
37450;BME280;23309;52.582;13.406;2022-09-04T00:18:48;101418.25;;;24.99;28.64
37450;BME280;23309;52.582;13.406;2022-09-04T00:21:25;101396.19;;;24.88;28.90
37450;BME280;23309;52.582;13.406;2022-09-04T00:23:58;101403.34;;;24.89;28.77
37450;BME280;23309;52.582;13.406;2022-09-04T00:26:39;101405.00;;;24.90;29.07
37450;BME280;23309;52.582;13.406;2022-09-04T00:29:16;101409.41;;;24.78;29.11
37450;BME280;23309;52.582;13.406;2022-09-04T00:31:48;101392.22;;;24.64;28.93
37450;BME280;23309;52.582;13.406;2022-09-04T00:34:35;101419.75;;;24.76;29.05
37450;BME280;23309;52.582;13.406;2022-09-04T00:37:09;101413.22;;;24.64;29.35
37450;BME280;23309;52.582;13.406;2022-09-04T00:39:44;101405.84;;;24.58;29.27
37450;BME280;23309;52.582;13.406;2022-09-04T00:42:32;101414.91;;;24.65;29.05
37450;BME280;23309;52.582;13.406;2022-09-04T00:45:11;101408.56;;;24.58;29.17
37450;BME280;23309;52.582;13.406;2022-09-04T00:48:10;101392.56;;;24.42;29.39
37450;BME280;23309;52.582;13.406;2022-09-04T00:51:01;101410.22;;;24.46;29.47
37450;BME280;23309;52.582;13.406;2022-09-04T00:53:59;101416.94;;;24.43;29.10
37450;BME280;23309;52.582;13.406;2022-09-04T00:56:54;101419.47;;;24.32;29.41
37450;BME280;23309;52.582;13.406;2022-09-04T00:59:45;101438.16;;;24.35;29.72
37450;BME280;23309;52.582;13.406;2022-09-04T01:02:30;101440.88;;;24.28;29.97
37450;BME280;23309;52.582;13.406;2022-09-04T01:05:21;101436.25;;;24.29;29.85
37450;BME280;23309;52.582;13.406;2022-09-04T01:07:59;101441.06;;;24.20;30.10
37450;BME280;23309;52.582;13.406;2022-09-04T01:10:39;101447.81;;;24.24;30.03
37450;BME280;23309;52.582;13.406;2022-09-04T01:13:19;101443.19;;;24.25;29.74
37450;BME280;23309;52.582;13.406;2022-09-04T01:15:55;101440.03;;;24.21;29.69
37450;BME280;23309;52.582;13.406;2022-09-04T01:18:31;101437.72;;;24.18;30.06
37450;BME280;23309;52.582;13.406;2022-09-04T01:21:28;101451.59;;;24.30;29.47
37450;BME280;23309;52.582;13.406;2022-09-04T01:24:35;101450.56;;;24.31;29.50
37450;BME280;23309;52.582;13.406;2022-09-04T01:27:08;101453.47;;;24.23;29.84
37450;BME280;23309;52.582;13.406;2022-09-04T01:29:48;101450.75;;;24.29;29.72
37450;BME280;23309;52.582;13.406;2022-09-04T01:32:30;101447.81;;;24.31;29.41
37450;BME280;23309;52.582;13.406;2022-09-04T01:35:05;101426.34;;;24.15;29.75
37450;BME280;23309;52.582;13.406;2022-09-04T01:37:47;101445.69;;;24.26;29.51
37450;BME280;23309;52.582;13.406;2022-09-04T01:40:28;101446.34;;;24.28;29.67
37450;BME280;23309;52.582;13.406;2022-09-04T01:43:05;101439.19;;;24.21;29.52
37450;BME280;23309;52.582;13.406;2022-09-04T01:46:06;101445.09;;;24.31;29.54
37450;BME280;23309;52.582;13.406;2022-09-04T01:48:44;101449.91;;;24.16;29.82
37450;BME280;23309;52.582;13.406;2022-09-04T01:51:20;101453.88;;;24.20;29.66
37450;BME280;23309;52.582;13.406;2022-09-04T01:54:04;101444.66;;;24.14;29.75
37450;BME280;23309;52.582;13.406;2022-09-04T01:56:37;101436.22;;;24.03;29.73
37450;BME280;23309;52.582;13.406;2022-09-04T01:59:16;101446.91;;;24.11;29.97
37450;BME280;23309;52.582;13.406;2022-09-04T02:01:51;101433.25;;;23.91;29.88
37450;BME280;23309;52.582;13.406;2022-09-04T02:04:22;101446.91;;;23.98;29.93
37450;BME280;23309;52.582;13.406;2022-09-04T02:07:02;101456.13;;;24.03;29.72
37450;BME280;23309;52.582;13.406;2022-09-04T02:09:36;101457.59;;;23.99;29.81
37450;BME280;23309;52.582;13.406;2022-09-04T02:12:23;101442.69;;;23.95;29.68
37450;BME280;23309;52.582;13.406;2022-09-04T02:15:00;101441.16;;;23.86;30.34
37450;BME280;23309;52.582;13.406;2022-09-04T02:17:39;101437.59;;;23.86;29.81
37450;BME280;23309;52.582;13.406;2022-09-04T02:20:22;101443.66;;;23.88;30.06
37450;BME280;23309;52.582;13.406;2022-09-04T02:22:58;101448.66;;;23.78;30.39
37450;BME280;23309;52.582;13.406;2022-09-04T02:25:31;101436.03;;;23.64;30.26
37450;BME280;23309;52.582;13.406;2022-09-04T02:28:15;101446.97;;;23.70;30.55
37450;BME280;23309;52.582;13.406;2022-09-04T02:30:55;101452.38;;;23.64;30.57
37450;BME280;23309;52.582;13.406;2022-09-04T02:33:31;101459.50;;;23.58;30.32
37450;BME280;23309;52.582;13.406;2022-09-04T02:36:06;101450.88;;;23.55;30.77
37450;BME280;23309;52.582;13.406;2022-09-04T02:38:41;101451.06;;;23.53;30.57
37450;BME280;23309;52.582;13.406;2022-09-04T02:41:16;101456.94;;;23.57;30.64
37450;BME280;23309;52.582;13.406;2022-09-04T02:43:57;101455.28;;;23.56;30.19
37450;BME280;23309;52.582;13.406;2022-09-04T02:46:39;101441.59;;;23.49;30.61
37450;BME280;23309;52.582;13.406;2022-09-04T02:49:13;101458.59;;;23.45;30.58
37450;BME280;23309;52.582;13.406;2022-09-04T02:51:57;101462.41;;;23.57;30.78
37450;BME280;23309;52.582;13.406;2022-09-04T02:54:45;101438.41;;;23.39;30.57
37450;BME280;23309;52.582;13.406;2022-09-04T02:57:24;101455.44;;;23.41;30.81
37450;BME280;23309;52.582;13.406;2022-09-04T03:00:00;101448.47;;;23.39;30.96
37450;BME280;23309;52.582;13.406;2022-09-04T03:02:33;101453.09;;;23.38;30.64
37450;BME280;23309;52.582;13.406;2022-09-04T03:05:06;101451.63;;;23.36;30.57
37450;BME280;23309;52.582;13.406;2022-09-04T03:07:35;101450.53;;;23.30;30.64
37450;BME280;23309;52.582;13.406;2022-09-04T03:10:09;101443.78;;;23.26;30.92
37450;BME280;23309;52.582;13.406;2022-09-04T03:12:43;101448.59;;;23.24;30.59
37450;BME280;23309;52.582;13.406;2022-09-04T03:15:19;101444.84;;;23.25;30.95
37450;BME280;23309;52.582;13.406;2022-09-04T03:17:59;101455.13;;;23.30;30.48
37450;BME280;23309;52.582;13.406;2022-09-04T03:20:30;101440.69;;;23.08;30.94
37450;BME280;23309;52.582;13.406;2022-09-04T03:23:03;101450.41;;;23.17;30.96
37450;BME280;23309;52.582;13.406;2022-09-04T03:25:56;101438.88;;;23.15;30.92
37450;BME280;23309;52.582;13.406;2022-09-04T03:28:39;101463.22;;;23.17;30.89
37450;BME280;23309;52.582;13.406;2022-09-04T03:31:25;101463.88;;;23.19;30.71
37450;BME280;23309;52.582;13.406;2022-09-04T03:34:14;101464.88;;;23.18;30.74
37450;BME280;23309;52.582;13.406;2022-09-04T03:36:57;101471.13;;;23.12;30.79
37450;BME280;23309;52.582;13.406;2022-09-04T03:39:34;101469.84;;;23.08;31.00
37450;BME280;23309;52.582;13.406;2022-09-04T03:42:07;101456.38;;;23.00;31.23
37450;BME280;23309;52.582;13.406;2022-09-04T03:44:49;101464.13;;;23.03;30.87
37450;BME280;23309;52.582;13.406;2022-09-04T03:47:33;101465.13;;;22.95;31.52
37450;BME280;23309;52.582;13.406;2022-09-04T03:50:16;101448.03;;;22.80;31.46
37450;BME280;23309;52.582;13.406;2022-09-04T03:52:54;101456.66;;;22.84;31.53
37450;BME280;23309;52.582;13.406;2022-09-04T03:55:51;101462.28;;;22.82;31.17
37450;BME280;23309;52.582;13.406;2022-09-04T03:58:26;101469.59;;;22.75;31.45
37450;BME280;23309;52.582;13.406;2022-09-04T04:00:59;101463.03;;;22.70;31.89
37450;BME280;23309;52.582;13.406;2022-09-04T04:03:45;101469.84;;;22.80;31.26
37450;BME280;23309;52.582;13.406;2022-09-04T04:06:26;101475.59;;;22.71;31.53
37450;BME280;23309;52.582;13.406;2022-09-04T04:09:28;101482.16;;;22.76;31.35
37450;BME280;23309;52.582;13.406;2022-09-04T04:12:25;101459.41;;;22.63;31.25
37450;BME280;23309;52.582;13.406;2022-09-04T04:15:12;101456.63;;;22.56;31.63
37450;BME280;23309;52.582;13.406;2022-09-04T04:18:07;101480.16;;;22.64;31.90
37450;BME280;23309;52.582;13.406;2022-09-04T04:20:43;101484.25;;;22.53;31.60
37450;BME280;23309;52.582;13.406;2022-09-04T04:26:21;101484.63;;;22.50;31.74
37450;BME280;23309;52.582;13.406;2022-09-04T04:29:15;101481.06;;;22.50;32.15
37450;BME280;23309;52.582;13.406;2022-09-04T04:31:55;101486.41;;;22.43;32.11
37450;BME280;23309;52.582;13.406;2022-09-04T04:34:29;101479.22;;;22.36;32.32
37450;BME280;23309;52.582;13.406;2022-09-04T04:37:06;101491.59;;;22.38;31.98
37450;BME280;23309;52.582;13.406;2022-09-04T04:39:43;101498.28;;;22.36;32.10
37450;BME280;23309;52.582;13.406;2022-09-04T04:42:20;101491.72;;;22.30;32.03
37450;BME280;23309;52.582;13.406;2022-09-04T04:45:06;101506.81;;;22.33;32.38
37450;BME280;23309;52.582;13.406;2022-09-04T04:47:57;101503.66;;;22.29;32.29
37450;BME280;23309;52.582;13.406;2022-09-04T04:50:34;101500.63;;;22.24;32.30
37450;BME280;23309;52.582;13.406;2022-09-04T04:53:11;101515.38;;;22.30;32.34
37450;BME280;23309;52.582;13.406;2022-09-04T04:55:49;101506.56;;;22.28;32.63
37450;BME280;23309;52.582;13.406;2022-09-04T04:58:31;101512.38;;;22.25;32.60
37450;BME280;23309;52.582;13.406;2022-09-04T05:01:08;101504.72;;;22.14;32.32
37450;BME280;23309;52.582;13.406;2022-09-04T05:03:53;101506.38;;;22.29;32.20
37450;BME280;23309;52.582;13.406;2022-09-04T05:06:30;101515.63;;;22.35;32.36
37450;BME280;23309;52.582;13.406;2022-09-04T05:09:10;101522.09;;;22.48;32.22
37450;BME280;23309;52.582;13.406;2022-09-04T05:11:49;101534.28;;;22.73;32.28
37450;BME280;23309;52.582;13.406;2022-09-04T05:14:33;101535.78;;;22.97;31.65
37450;BME280;23309;52.582;13.406;2022-09-04T05:17:13;101541.88;;;23.20;31.41
37450;BME280;23309;52.582;13.406;2022-09-04T05:19:49;101545.41;;;23.41;31.00
37450;BME280;23309;52.582;13.406;2022-09-04T05:22:22;101548.97;;;23.69;30.77
37450;BME280;23309;52.582;13.406;2022-09-04T05:24:59;101559.88;;;24.03;30.34
37450;BME280;23309;52.582;13.406;2022-09-04T05:28:04;101559.16;;;24.35;29.88
37450;BME280;23309;52.582;13.406;2022-09-04T05:30:42;101557.31;;;24.49;29.77
37450;BME280;23309;52.582;13.406;2022-09-04T05:33:20;101562.47;;;24.78;28.91
37450;BME280;23309;52.582;13.406;2022-09-04T05:35:54;101570.06;;;25.02;28.52
37450;BME280;23309;52.582;13.406;2022-09-04T05:38:31;101559.34;;;25.20;28.79
37450;BME280;23309;52.582;13.406;2022-09-04T05:41:06;101581.69;;;25.49;27.91
37450;BME280;23309;52.582;13.406;2022-09-04T05:44:01;101583.31;;;25.83;27.53
37450;BME280;23309;52.582;13.406;2022-09-04T05:46:47;101576.16;;;25.89;27.58
37450;BME280;23309;52.582;13.406;2022-09-04T05:49:31;101597.56;;;26.18;27.22
37450;BME280;23309;52.582;13.406;2022-09-04T05:55:31;101591.78;;;26.39;26.74
37450;BME280;23309;52.582;13.406;2022-09-04T05:58:16;101565.22;;;26.39;26.42
37450;BME280;23309;52.582;13.406;2022-09-04T06:00:59;101590.41;;;26.67;26.11
37450;BME280;23309;52.582;13.406;2022-09-04T06:03:52;101586.47;;;26.94;25.93
37450;BME280;23309;52.582;13.406;2022-09-04T06:06:27;101598.19;;;27.01;25.95
37450;BME280;23309;52.582;13.406;2022-09-04T06:09:26;101607.84;;;27.41;25.63
37450;BME280;23309;52.582;13.406;2022-09-04T06:12:24;101616.19;;;27.53;25.63
37450;BME280;23309;52.582;13.406;2022-09-04T06:15:18;101609.66;;;27.72;25.13
37450;BME280;23309;52.582;13.406;2022-09-04T06:18:09;101617.44;;;27.99;24.60
37450;BME280;23309;52.582;13.406;2022-09-04T06:21:01;101611.09;;;28.35;24.50
37450;BME280;23309;52.582;13.406;2022-09-04T06:23:55;101603.72;;;28.35;24.68
37450;BME280;23309;52.582;13.406;2022-09-04T06:30:01;101604.00;;;28.63;24.16
37450;BME280;23309;52.582;13.406;2022-09-04T06:39:33;101620.84;;;29.14;23.51
37450;BME280;23309;52.582;13.406;2022-09-04T06:42:18;101619.69;;;29.33;23.79
37450;BME280;23309;52.582;13.406;2022-09-04T06:45:06;101621.78;;;29.61;23.12
37450;BME280;23309;52.582;13.406;2022-09-04T06:47:50;101622.69;;;29.43;23.24
37450;BME280;23309;52.582;13.406;2022-09-04T06:50:34;101623.34;;;29.16;23.70
37450;BME280;23309;52.582;13.406;2022-09-04T06:53:16;101631.88;;;28.96;23.65
37450;BME280;23309;52.582;13.406;2022-09-04T06:55:56;101630.16;;;28.84;24.13
37450;BME280;23309;52.582;13.406;2022-09-04T06:59:15;101637.16;;;28.50;24.61
37450;BME280;23309;52.582;13.406;2022-09-04T07:01:52;101635.03;;;28.16;25.13
37450;BME280;23309;52.582;13.406;2022-09-04T07:04:36;101644.09;;;28.35;24.93
37450;BME280;23309;52.582;13.406;2022-09-04T07:07:19;101639.88;;;28.68;24.88
37450;BME280;23309;52.582;13.406;2022-09-04T07:09:55;101647.78;;;28.94;24.48
37450;BME280;23309;52.582;13.406;2022-09-04T07:12:42;101653.44;;;29.40;24.03
37450;BME280;23309;52.582;13.406;2022-09-04T07:15:37;101641.91;;;29.73;23.72
37450;BME280;23309;52.582;13.406;2022-09-04T07:18:22;101642.88;;;30.01;23.41
37450;BME280;23309;52.582;13.406;2022-09-04T07:21:00;101629.69;;;30.15;23.60
37450;BME280;23309;52.582;13.406;2022-09-04T07:23:39;101648.94;;;30.38;23.16
37450;BME280;23309;52.582;13.406;2022-09-04T07:26:19;101650.47;;;30.57;23.16
37450;BME280;23309;52.582;13.406;2022-09-04T07:29:23;101662.75;;;30.89;22.64
37450;BME280;23309;52.582;13.406;2022-09-04T07:32:01;101648.41;;;30.75;23.07
37450;BME280;23309;52.582;13.406;2022-09-04T07:34:39;101650.91;;;31.05;22.88
37450;BME280;23309;52.582;13.406;2022-09-04T07:37:20;101651.50;;;31.35;22.80
37450;BME280;23309;52.582;13.406;2022-09-04T07:39:59;101655.44;;;31.72;22.62
37450;BME280;23309;52.582;13.406;2022-09-04T07:42:33;101658.72;;;32.02;22.10
37450;BME280;23309;52.582;13.406;2022-09-04T07:45:10;101657.31;;;32.21;21.66
37450;BME280;23309;52.582;13.406;2022-09-04T07:47:43;101645.88;;;32.13;21.97
37450;BME280;23309;52.582;13.406;2022-09-04T07:50:16;101658.25;;;32.27;21.78
37450;BME280;23309;52.582;13.406;2022-09-04T07:52:57;101663.44;;;32.40;21.96
37450;BME280;23309;52.582;13.406;2022-09-04T07:55:36;101665.88;;;32.36;21.37
37450;BME280;23309;52.582;13.406;2022-09-04T07:58:32;101681.81;;;32.51;21.66
37450;BME280;23309;52.582;13.406;2022-09-04T08:01:20;101684.41;;;32.57;21.61
37450;BME280;23309;52.582;13.406;2022-09-04T08:04:32;101691.50;;;32.70;21.57
37450;BME280;23309;52.582;13.406;2022-09-04T08:07:11;101680.16;;;32.71;21.78
37450;BME280;23309;52.582;13.406;2022-09-04T08:10:05;101687.28;;;33.10;21.48
37450;BME280;23309;52.582;13.406;2022-09-04T08:13:22;101691.66;;;33.06;21.59
37450;BME280;23309;52.582;13.406;2022-09-04T08:16:03;101694.75;;;33.10;21.57
37450;BME280;23309;52.582;13.406;2022-09-04T08:19:05;101690.09;;;33.15;21.70
37450;BME280;23309;52.582;13.406;2022-09-04T08:21:38;101673.16;;;33.33;21.70
37450;BME280;23309;52.582;13.406;2022-09-04T08:24:28;101687.38;;;33.73;20.67
37450;BME280;23309;52.582;13.406;2022-09-04T08:27:12;101688.16;;;34.00;21.14
37450;BME280;23309;52.582;13.406;2022-09-04T08:30:02;101675.28;;;34.26;20.83
37450;BME280;23309;52.582;13.406;2022-09-04T08:32:59;101698.78;;;34.50;20.11
37450;BME280;23309;52.582;13.406;2022-09-04T08:35:32;101689.56;;;34.39;20.63
37450;BME280;23309;52.582;13.406;2022-09-04T08:38:22;101687.03;;;34.38;20.23
37450;BME280;23309;52.582;13.406;2022-09-04T08:41:27;101687.59;;;34.40;20.34
37450;BME280;23309;52.582;13.406;2022-09-04T08:44:59;101682.19;;;34.18;20.41
37450;BME280;23309;52.582;13.406;2022-09-04T08:48:16;101694.59;;;34.47;21.05
37450;BME280;23309;52.582;13.406;2022-09-04T08:51:41;101687.44;;;34.61;20.36
37450;BME280;23309;52.582;13.406;2022-09-04T08:54:43;101689.34;;;34.51;20.36
37450;BME280;23309;52.582;13.406;2022-09-04T09:00:47;101686.53;;;34.46;20.10
37450;BME280;23309;52.582;13.406;2022-09-04T09:04:00;101685.75;;;34.60;20.31
37450;BME280;23309;52.582;13.406;2022-09-04T09:07:01;101679.88;;;34.47;20.39
37450;BME280;23309;52.582;13.406;2022-09-04T09:10:30;101696.59;;;34.67;20.09
37450;BME280;23309;52.582;13.406;2022-09-04T09:16:22;101690.78;;;34.68;20.26
37450;BME280;23309;52.582;13.406;2022-09-04T09:19:19;101680.34;;;34.90;19.79
37450;BME280;23309;52.582;13.406;2022-09-04T09:22:08;101681.19;;;34.81;19.98
37450;BME280;23309;52.582;13.406;2022-09-04T09:25:13;101686.78;;;34.96;19.89
37450;BME280;23309;52.582;13.406;2022-09-04T09:31:50;101688.19;;;35.23;19.81
37450;BME280;23309;52.582;13.406;2022-09-04T09:35:12;101691.88;;;35.39;19.46
37450;BME280;23309;52.582;13.406;2022-09-04T09:38:14;101693.03;;;35.58;19.54
37450;BME280;23309;52.582;13.406;2022-09-04T09:41:29;101695.22;;;35.61;19.02
37450;BME280;23309;52.582;13.406;2022-09-04T09:51:16;101697.47;;;35.49;19.00
37450;BME280;23309;52.582;13.406;2022-09-04T09:57:48;101694.31;;;35.15;19.02
37450;BME280;23309;52.582;13.406;2022-09-04T10:00:30;101679.16;;;34.71;19.44
37450;BME280;23309;52.582;13.406;2022-09-04T10:03:40;101675.91;;;34.89;19.76
37450;BME280;23309;52.582;13.406;2022-09-04T10:06:51;101667.88;;;34.98;19.43
37450;BME280;23309;52.582;13.406;2022-09-04T10:09:46;101685.41;;;35.08;19.32
37450;BME280;23309;52.582;13.406;2022-09-04T10:12:44;101677.59;;;35.00;19.03
37450;BME280;23309;52.582;13.406;2022-09-04T10:19:12;101679.56;;;34.95;19.51
37450;BME280;23309;52.582;13.406;2022-09-04T10:25:20;101694.84;;;35.02;19.14
37450;BME280;23309;52.582;13.406;2022-09-04T10:28:21;101698.50;;;35.23;19.05
37450;BME280;23309;52.582;13.406;2022-09-04T10:31:34;101693.25;;;35.36;18.69
37450;BME280;23309;52.582;13.406;2022-09-04T10:34:33;101690.50;;;35.61;18.92
37450;BME280;23309;52.582;13.406;2022-09-04T10:37:27;101691.63;;;35.85;18.89
37450;BME280;23309;52.582;13.406;2022-09-04T10:40:11;101683.81;;;36.07;18.46
37450;BME280;23309;52.582;13.406;2022-09-04T10:42:52;101692.16;;;36.32;17.63
37450;BME280;23309;52.582;13.406;2022-09-04T10:45:25;101684.03;;;36.46;17.71
37450;BME280;23309;52.582;13.406;2022-09-04T10:48:38;101689.88;;;36.54;17.04
37450;BME280;23309;52.582;13.406;2022-09-04T10:51:51;101699.00;;;36.60;17.42
37450;BME280;23309;52.582;13.406;2022-09-04T10:54:55;101693.72;;;36.63;17.19
37450;BME280;23309;52.582;13.406;2022-09-04T10:57:47;101702.38;;;36.67;17.36
37450;BME280;23309;52.582;13.406;2022-09-04T11:00:19;101683.16;;;36.60;17.20
37450;BME280;23309;52.582;13.406;2022-09-04T11:12:19;101687.72;;;37.48;16.66
37450;BME280;23309;52.582;13.406;2022-09-04T11:15:22;101687.31;;;37.65;16.29
37450;BME280;23309;52.582;13.406;2022-09-04T11:21:52;101703.72;;;37.71;16.40
37450;BME280;23309;52.582;13.406;2022-09-04T11:25:00;101701.75;;;37.72;16.52
37450;BME280;23309;52.582;13.406;2022-09-04T11:31:12;101679.56;;;37.57;16.49
37450;BME280;23309;52.582;13.406;2022-09-04T11:37:43;101690.16;;;37.88;16.27
37450;BME280;23309;52.582;13.406;2022-09-04T11:47:29;101679.44;;;37.72;16.53
37450;BME280;23309;52.582;13.406;2022-09-04T11:50:32;101672.06;;;37.86;16.39
37450;BME280;23309;52.582;13.406;2022-09-04T11:53:24;101664.41;;;38.02;16.13
37450;BME280;23309;52.582;13.406;2022-09-04T11:56:10;101656.22;;;38.10;16.31
37450;BME280;23309;52.582;13.406;2022-09-04T11:59:19;101664.91;;;38.32;16.06
37450;BME280;23309;52.582;13.406;2022-09-04T12:02:17;101663.97;;;38.18;15.93
37450;BME280;23309;52.582;13.406;2022-09-04T12:05:09;101654.44;;;37.90;16.26
37450;BME280;23309;52.582;13.406;2022-09-04T12:08:00;101656.38;;;37.90;16.22
37450;BME280;23309;52.582;13.406;2022-09-04T12:10:40;101657.69;;;37.97;16.02
37450;BME280;23309;52.582;13.406;2022-09-04T12:13:46;101660.69;;;38.11;16.19
37450;BME280;23309;52.582;13.406;2022-09-04T12:16:50;101657.13;;;38.29;15.92
37450;BME280;23309;52.582;13.406;2022-09-04T12:19:53;101649.69;;;38.43;15.81
37450;BME280;23309;52.582;13.406;2022-09-04T12:22:56;101649.84;;;38.57;15.67
37450;BME280;23309;52.582;13.406;2022-09-04T12:32:55;101649.06;;;38.51;15.68
37450;BME280;23309;52.582;13.406;2022-09-04T12:39:32;101652.31;;;38.58;15.95
37450;BME280;23309;52.582;13.406;2022-09-04T12:42:10;101646.66;;;38.40;16.16
37450;BME280;23309;52.582;13.406;2022-09-04T12:44:55;101652.63;;;38.57;15.70
37450;BME280;23309;52.582;13.406;2022-09-04T12:47:36;101652.16;;;38.50;15.55
37450;BME280;23309;52.582;13.406;2022-09-04T12:50:18;101653.38;;;38.39;16.12
37450;BME280;23309;52.582;13.406;2022-09-04T12:53:07;101651.34;;;38.44;15.45
37450;BME280;23309;52.582;13.406;2022-09-04T12:55:47;101660.53;;;38.50;15.78
37450;BME280;23309;52.582;13.406;2022-09-04T12:58:29;101627.19;;;38.35;15.53
37450;BME280;23309;52.582;13.406;2022-09-04T13:01:10;101647.94;;;38.52;15.59
37450;BME280;23309;52.582;13.406;2022-09-04T13:03:48;101644.78;;;38.59;15.44
37450;BME280;23309;52.582;13.406;2022-09-04T13:06:28;101637.69;;;38.66;15.36
37450;BME280;23309;52.582;13.406;2022-09-04T13:09:12;101669.91;;;38.59;15.30
37450;BME280;23309;52.582;13.406;2022-09-04T13:11:56;101654.59;;;38.56;15.58
37450;BME280;23309;52.582;13.406;2022-09-04T13:14:51;101662.22;;;38.93;15.41
37450;BME280;23309;52.582;13.406;2022-09-04T13:17:32;101654.66;;;38.93;15.21
37450;BME280;23309;52.582;13.406;2022-09-04T13:20:15;101659.41;;;39.11;14.92
37450;BME280;23309;52.582;13.406;2022-09-04T13:22:59;101655.56;;;38.89;14.94
37450;BME280;23309;52.582;13.406;2022-09-04T13:25:39;101641.81;;;38.50;15.02
37450;BME280;23309;52.582;13.406;2022-09-04T13:28:16;101662.22;;;38.22;15.22
37450;BME280;23309;52.582;13.406;2022-09-04T13:30:52;101650.63;;;37.81;15.34
37450;BME280;23309;52.582;13.406;2022-09-04T13:33:35;101671.28;;;37.80;15.14
37450;BME280;23309;52.582;13.406;2022-09-04T13:36:15;101670.38;;;37.51;15.30
37450;BME280;23309;52.582;13.406;2022-09-04T13:39:21;101625.91;;;36.98;15.44
37450;BME280;23309;52.582;13.406;2022-09-04T13:45:04;101664.38;;;36.91;16.02
37450;BME280;23309;52.582;13.406;2022-09-04T13:47:40;101655.19;;;36.90;15.97
37450;BME280;23309;52.582;13.406;2022-09-04T13:50:18;101670.53;;;36.83;16.70
37450;BME280;23309;52.582;13.406;2022-09-04T13:52:51;101669.19;;;36.65;16.37
37450;BME280;23309;52.582;13.406;2022-09-04T13:55:22;101674.03;;;36.40;16.95
37450;BME280;23309;52.582;13.406;2022-09-04T13:57:57;101666.84;;;36.24;16.89
37450;BME280;23309;52.582;13.406;2022-09-04T14:00:24;101659.66;;;35.93;16.73
37450;BME280;23309;52.582;13.406;2022-09-04T14:02:55;101672.72;;;35.77;16.95
37450;BME280;23309;52.582;13.406;2022-09-04T14:05:29;101667.69;;;35.54;16.97
37450;BME280;23309;52.582;13.406;2022-09-04T14:08:00;101658.25;;;35.35;17.17
37450;BME280;23309;52.582;13.406;2022-09-04T14:13:51;101662.69;;;35.36;17.16
37450;BME280;23309;52.582;13.406;2022-09-04T14:16:21;101670.19;;;35.26;17.11
37450;BME280;23309;52.582;13.406;2022-09-04T14:19:19;101670.75;;;35.48;17.23
37450;BME280;23309;52.582;13.406;2022-09-04T14:22:05;101664.66;;;35.51;16.79
37450;BME280;23309;52.582;13.406;2022-09-04T14:24:40;101666.03;;;35.38;17.04
37450;BME280;23309;52.582;13.406;2022-09-04T14:27:18;101662.13;;;35.19;17.11
37450;BME280;23309;52.582;13.406;2022-09-04T14:30:00;101674.88;;;35.10;17.28
37450;BME280;23309;52.582;13.406;2022-09-04T14:32:41;101670.09;;;34.96;17.19
37450;BME280;23309;52.582;13.406;2022-09-04T14:35:17;101677.34;;;35.07;17.21
37450;BME280;23309;52.582;13.406;2022-09-04T14:38:19;101661.56;;;35.27;16.97
37450;BME280;23309;52.582;13.406;2022-09-04T14:41:01;101668.56;;;35.40;17.37
37450;BME280;23309;52.582;13.406;2022-09-04T14:43:41;101666.31;;;35.47;16.96
37450;BME280;23309;52.582;13.406;2022-09-04T14:46:19;101667.44;;;35.61;17.06
37450;BME280;23309;52.582;13.406;2022-09-04T14:48:48;101666.63;;;35.65;16.77
37450;BME280;23309;52.582;13.406;2022-09-04T14:51:33;101668.28;;;35.81;17.08
37450;BME280;23309;52.582;13.406;2022-09-04T14:54:03;101673.50;;;36.18;16.50
37450;BME280;23309;52.582;13.406;2022-09-04T14:56:40;101678.97;;;36.63;15.94
37450;BME280;23309;52.582;13.406;2022-09-04T14:59:17;101676.25;;;36.48;15.86
37450;BME280;23309;52.582;13.406;2022-09-04T15:02:03;101676.72;;;36.65;15.85
37450;BME280;23309;52.582;13.406;2022-09-04T15:04:41;101673.47;;;36.38;16.15
37450;BME280;23309;52.582;13.406;2022-09-04T15:07:28;101669.38;;;36.20;16.25
37450;BME280;23309;52.582;13.406;2022-09-04T15:10:13;101665.69;;;36.20;16.57
37450;BME280;23309;52.582;13.406;2022-09-04T15:12:48;101677.72;;;36.20;16.10
37450;BME280;23309;52.582;13.406;2022-09-04T15:15:18;101661.53;;;36.17;15.89
37450;BME280;23309;52.582;13.406;2022-09-04T15:17:51;101668.22;;;36.26;16.12
37450;BME280;23309;52.582;13.406;2022-09-04T15:20:21;101672.16;;;36.20;16.40
37450;BME280;23309;52.582;13.406;2022-09-04T15:22:53;101670.47;;;36.19;16.19
37450;BME280;23309;52.582;13.406;2022-09-04T15:25:49;101675.16;;;36.39;16.05
37450;BME280;23309;52.582;13.406;2022-09-04T15:28:24;101674.91;;;36.15;16.16
37450;BME280;23309;52.582;13.406;2022-09-04T15:31:08;101675.75;;;36.16;16.06
37450;BME280;23309;52.582;13.406;2022-09-04T15:33:35;101663.84;;;35.95;16.25
37450;BME280;23309;52.582;13.406;2022-09-04T15:36:08;101684.13;;;35.96;16.51
37450;BME280;23309;52.582;13.406;2022-09-04T15:38:36;101665.81;;;35.80;16.48